Time;durP1;ratioP1;P1;durP2;ratioP2;P2;SDS_P1;SDS_P2;PMS_P1;PMS_P2;Temp;Humidity;BMP_temperature;BMP_pressure;BME280_temperature;BME280_humidity;BME280_pressure;Samples;Min_cycle;Max_cycle;Signal;HPM_P1;HPM_P2
2023/07/21 00:00:46;;;;;;;4.32;3.45;;;19.20;99.90;;;;;;2092121;28;20028;-70
2023/07/21 00:01:47;;;;;;;3.45;3.25;;;19.20;99.90;;;;;;2093918;28;20029;-70
2023/07/21 00:02:48;;;;;;;3.85;3.45;;;19.20;99.90;;;;;;2093010;28;20535;-70
2023/07/21 00:03:49;;;;;;;3.15;2.90;;;19.20;99.90;;;;;;2091590;28;20025;-70
2023/07/21 00:04:49;;;;;;;4.10;3.80;;;19.20;99.90;;;;;;2094680;28;20595;-70
2023/07/21 00:05:50;;;;;;;4.20;3.80;;;19.20;99.90;;;;;;2093779;28;20562;-70
2023/07/21 00:06:51;;;;;;;4.22;3.90;;;19.10;99.90;;;;;;2092649;28;20063;-70
2023/07/21 00:07:52;;;;;;;4.28;3.47;;;19.10;99.90;;;;;;2092398;28;20845;-70
2023/07/21 00:08:53;;;;;;;3.33;3.13;;;19.20;99.90;;;;;;2092175;28;20586;-70
2023/07/21 00:09:54;;;;;;;5.30;4.00;;;19.10;99.90;;;;;;2092336;28;20033;-70
2023/07/21 00:10:57;;;;;;;3.95;3.65;;;19.10;99.90;;;;;;2092725;28;20029;-70
2023/07/21 00:11:57;;;;;;;4.13;3.58;;;19.10;99.90;;;;;;2093230;28;20048;-70
2023/07/21 00:12:58;;;;;;;3.65;3.42;;;19.00;99.90;;;;;;2092047;28;20024;-70
2023/07/21 00:13:58;;;;;;;3.40;3.10;;;19.00;99.90;;;;;;2092874;28;20082;-70
2023/07/21 00:14:59;;;;;;;3.67;3.30;;;19.00;99.90;;;;;;2092526;28;20028;-70
2023/07/21 00:16:03;;;;;;;3.35;3.05;;;19.00;99.90;;;;;;2092537;28;20024;-70
2023/07/21 00:17:05;;;;;;;2.95;2.75;;;18.90;99.90;;;;;;2093061;28;20032;-70
2023/07/21 00:18:06;;;;;;;2.90;2.67;;;18.90;99.90;;;;;;2092290;28;20021;-70
2023/07/21 00:19:06;;;;;;;3.70;3.40;;;18.90;99.90;;;;;;2093550;28;20109;-70
2023/07/21 00:20:12;;;;;;;4.00;3.70;;;18.90;99.90;;;;;;2090698;28;20024;-70
2023/07/21 00:21:13;;;;;;;3.67;3.38;;;18.90;99.90;;;;;;2092327;28;20029;-70
2023/07/21 00:22:14;;;;;;;3.45;3.17;;;18.80;99.90;;;;;;2093255;28;20060;-70
2023/07/21 00:23:15;;;;;;;5.25;3.08;;;18.80;99.90;;;;;;2091312;28;20078;-70
2023/07/21 00:24:17;;;;;;;5.25;4.18;;;18.80;99.90;;;;;;2091561;28;20028;-70
2023/07/21 00:25:18;;;;;;;4.28;3.97;;;18.80;99.90;;;;;;2093894;28;20013;-70
2023/07/21 00:26:19;;;;;;;4.38;4.03;;;18.80;99.90;;;;;;2091671;28;20026;-70
2023/07/21 00:27:19;;;;;;;3.95;3.38;;;18.70;99.90;;;;;;2094023;28;20031;-70
2023/07/21 00:28:20;;;;;;;3.97;3.65;;;18.70;99.90;;;;;;2091501;28;20654;-70
2023/07/21 00:29:20;;;;;;;4.25;3.85;;;18.80;99.90;;;;;;2090941;28;20100;-70
2023/07/21 00:30:22;;;;;;;3.50;3.20;;;18.70;99.90;;;;;;2092415;28;20108;-70
2023/07/21 00:31:22;;;;;;;4.63;4.30;;;18.70;99.90;;;;;;2089333;28;20383;-70
2023/07/21 00:32:23;;;;;;;5.13;3.47;;;18.70;99.90;;;;;;2091881;28;20044;-70
2023/07/21 00:33:25;;;;;;;4.72;3.03;;;18.70;99.90;;;;;;2093940;28;20097;-70
2023/07/21 00:34:25;;;;;;;4.55;3.53;;;18.70;99.90;;;;;;2093888;28;20079;-70
2023/07/21 00:35:26;;;;;;;4.45;4.05;;;18.60;99.90;;;;;;2093845;28;20525;-70
2023/07/21 00:36:27;;;;;;;4.28;3.85;;;18.60;99.90;;;;;;2093007;28;20833;-70
2023/07/21 00:37:27;;;;;;;3.40;3.10;;;18.60;99.90;;;;;;2091749;28;20020;-70
2023/07/21 00:38:28;;;;;;;3.85;3.55;;;18.60;99.90;;;;;;2092984;28;21455;-70
2023/07/21 00:39:28;;;;;;;5.75;3.38;;;18.50;99.90;;;;;;2091111;28;20064;-70
2023/07/21 00:40:30;;;;;;;3.85;3.40;;;18.60;99.90;;;;;;2092560;28;20020;-70
2023/07/21 00:41:30;;;;;;;3.47;3.17;;;18.60;99.90;;;;;;2093280;28;20052;-70
2023/07/21 00:42:31;;;;;;;3.80;3.50;;;18.50;99.90;;;;;;2092005;28;20025;-70
2023/07/21 00:43:32;;;;;;;4.00;3.60;;;18.50;99.90;;;;;;2089913;28;20033;-70
2023/07/21 00:44:36;;;;;;;3.50;2.92;;;18.50;99.90;;;;;;2094019;28;20514;-70
2023/07/21 00:45:37;;;;;;;4.95;3.53;;;18.50;99.90;;;;;;2093371;28;20025;-70
2023/07/21 00:46:38;;;;;;;3.92;3.58;;;18.40;99.90;;;;;;2094459;28;20373;-70
2023/07/21 00:47:40;;;;;;;3.17;2.97;;;18.40;99.90;;;;;;2092695;28;20048;-70
2023/07/21 00:48:40;;;;;;;8.18;3.85;;;18.40;99.90;;;;;;2095240;28;20036;-70
2023/07/21 00:49:42;;;;;;;3.63;3.28;;;18.40;99.90;;;;;;2092003;28;20025;-70
2023/07/21 00:50:45;;;;;;;3.47;3.28;;;18.40;99.90;;;;;;2093039;28;20112;-70
2023/07/21 00:51:46;;;;;;;3.00;2.80;;;18.40;99.90;;;;;;2093339;28;20036;-70
2023/07/21 00:52:47;;;;;;;5.65;4.10;;;18.40;99.90;;;;;;2094256;28;20025;-70
2023/07/21 00:53:47;;;;;;;5.00;4.15;;;18.40;99.90;;;;;;2094973;28;20032;-70
2023/07/21 00:54:48;;;;;;;3.95;3.35;;;18.30;99.90;;;;;;2096014;28;20040;-70
2023/07/21 00:55:50;;;;;;;4.00;3.63;;;18.30;99.90;;;;;;2094632;28;20024;-70
2023/07/21 00:56:53;;;;;;;5.60;3.83;;;18.30;99.90;;;;;;2093096;28;20044;-70
2023/07/21 00:57:53;;;;;;;4.43;4.10;;;18.30;99.90;;;;;;2093601;28;20669;-70
2023/07/21 00:58:55;;;;;;;3.80;3.50;;;18.30;99.90;;;;;;2093033;28;20414;-70
2023/07/21 00:59:55;;;;;;;4.32;3.92;;;18.30;99.90;;;;;;2090371;28;20024;-70
2023/07/21 01:00:56;;;;;;;4.15;3.67;;;18.20;99.90;;;;;;2092669;28;20025;-69
2023/07/21 01:01:56;;;;;;;3.08;2.88;;;18.20;99.90;;;;;;2092500;28;20021;-69
2023/07/21 01:02:57;;;;;;;3.33;3.08;;;18.20;99.90;;;;;;2091816;28;20025;-69
2023/07/21 01:03:58;;;;;;;4.00;3.30;;;18.20;99.90;;;;;;2092703;28;20060;-69
2023/07/21 01:04:59;;;;;;;4.15;3.13;;;18.20;99.90;;;;;;2094142;28;20021;-69
2023/07/21 01:06:00;;;;;;;4.68;3.25;;;18.20;99.90;;;;;;2092247;28;20027;-70
2023/07/21 01:07:05;;;;;;;3.60;3.05;;;18.20;99.90;;;;;;2092012;28;20028;-70
2023/07/21 01:08:07;;;;;;;4.28;3.88;;;18.10;99.90;;;;;;2090049;28;20128;-70
2023/07/21 01:09:08;;;;;;;4.32;3.92;;;18.10;99.90;;;;;;2091315;28;20024;-70
2023/07/21 01:10:11;;;;;;;4.22;3.92;;;18.10;99.90;;;;;;2091767;28;20029;-70
2023/07/21 01:11:13;;;;;;;3.95;3.65;;;18.10;99.90;;;;;;2093409;28;20077;-70
2023/07/21 01:12:14;;;;;;;3.42;3.22;;;18.10;99.90;;;;;;2089847;28;20033;-70
2023/07/21 01:13:15;;;;;;;3.72;3.15;;;18.00;99.90;;;;;;2092339;28;20017;-70
2023/07/21 01:14:16;;;;;;;3.60;3.30;;;18.00;99.90;;;;;;2092874;28;20024;-70
2023/07/21 01:15:17;;;;;;;4.07;3.78;;;18.00;99.90;;;;;;2091918;28;20112;-70
2023/07/21 01:16:17;;;;;;;3.95;3.65;;;18.00;99.90;;;;;;2092909;28;20078;-70
2023/07/21 01:17:19;;;;;;;3.63;3.30;;;18.00;99.90;;;;;;2092202;28;20048;-70
2023/07/21 01:18:21;;;;;;;4.35;4.05;;;18.00;99.90;;;;;;2091662;28;20024;-70
2023/07/21 01:19:23;;;;;;;4.35;3.60;;;18.00;99.90;;;;;;2093021;28;20108;-70
2023/07/21 01:20:27;;;;;;;5.18;3.38;;;18.00;99.90;;;;;;2090349;28;20021;-70
2023/07/21 01:21:40;;;;;;;3.05;2.85;;;17.90;99.90;;;;;;2091620;28;20377;-70
2023/07/21 01:22:48;;;;;;;3.22;2.97;;;17.90;99.90;;;;;;2090141;28;20111;-70
2023/07/21 01:23:58;;;;;;;4.28;3.35;;;17.80;99.90;;;;;;2091092;28;20021;-70
2023/07/21 01:25:10;;;;;;;4.00;3.70;;;17.90;99.90;;;;;;2092371;28;20067;-70
2023/07/21 01:26:12;;;;;;;4.30;3.72;;;17.80;99.90;;;;;;2093339;28;20031;-70
2023/07/21 01:27:16;;;;;;;4.65;4.18;;;17.80;99.90;;;;;;2092510;28;20029;-70
2023/07/21 01:28:18;;;;;;;4.10;3.75;;;17.80;99.90;;;;;;2095550;28;20085;-70
2023/07/21 01:29:20;;;;;;;4.47;4.15;;;17.80;99.90;;;;;;2090399;28;20017;-70
2023/07/21 01:30:22;;;;;;;3.78;3.47;;;17.70;99.90;;;;;;2092518;28;20012;-70
2023/07/21 01:31:23;;;;;;;3.05;2.85;;;17.70;99.90;;;;;;2092506;28;20025;-70
2023/07/21 01:32:27;;;;;;;3.35;3.13;;;17.70;99.90;;;;;;2091701;28;20021;-70
2023/07/21 01:33:30;;;;;;;3.30;3.00;;;17.70;99.90;;;;;;2091337;28;20027;-70
2023/07/21 01:34:34;;;;;;;3.30;3.10;;;17.70;99.90;;;;;;2093572;28;20025;-70
2023/07/21 01:35:37;;;;;;;2.90;2.67;;;17.70;99.90;;;;;;2092138;28;20052;-70
2023/07/21 01:36:39;;;;;;;3.35;3.10;;;17.70;99.90;;;;;;2093532;28;20100;-70
2023/07/21 01:37:41;;;;;;;5.22;3.90;;;17.70;99.90;;;;;;2091129;28;20215;-70
2023/07/21 01:38:43;;;;;;;4.13;3.83;;;17.70;99.90;;;;;;2093457;28;20017;-70
2023/07/21 01:39:44;;;;;;;4.20;3.83;;;17.70;99.90;;;;;;2093013;28;20642;-70
2023/07/21 01:40:46;;;;;;;4.55;4.15;;;17.70;99.90;;;;;;2093358;28;20070;-70
2023/07/21 01:41:47;;;;;;;3.70;3.40;;;17.60;99.90;;;;;;2091225;28;20036;-70
2023/07/21 01:42:50;;;;;;;3.85;3.55;;;17.60;99.90;;;;;;2083925;28;20021;-69
2023/07/21 01:43:53;;;;;;;3.38;3.08;;;17.60;99.90;;;;;;2084962;28;20056;-69
2023/07/21 01:44:54;;;;;;;4.63;3.30;;;17.60;99.90;;;;;;2091376;28;20043;-70
2023/07/21 01:45:54;;;;;;;3.70;2.78;;;17.60;99.90;;;;;;2090780;28;20075;-70
2023/07/21 01:46:55;;;;;;;3.78;3.47;;;17.60;99.90;;;;;;2092121;28;20013;-70
2023/07/21 01:47:56;;;;;;;3.58;3.28;;;17.60;99.90;;;;;;2091653;28;20033;-70
2023/07/21 01:48:58;;;;;;;3.70;2.90;;;17.60;99.90;;;;;;2092491;28;20021;-70
2023/07/21 01:49:59;;;;;;;3.40;3.20;;;17.60;99.90;;;;;;2091387;28;20035;-70
2023/07/21 01:51:02;;;;;;;5.85;3.80;;;17.60;99.90;;;;;;2092297;28;20495;-70
2023/07/21 01:52:03;;;;;;;4.60;4.25;;;17.60;99.90;;;;;;2092412;28;20059;-70
2023/07/21 01:53:07;;;;;;;4.72;3.85;;;17.60;99.90;;;;;;2090643;28;20042;-70
2023/07/21 01:54:18;;;;;;;3.83;3.45;;;17.60;99.90;;;;;;2092158;28;20393;-70
2023/07/21 01:55:26;;;;;;;;;;;17.60;99.90;;;;;;2092001;28;20025;-70
2023/07/21 01:56:41;;;;;;;3.90;3.60;;;17.50;99.90;;;;;;2091633;28;20273;-70
2023/07/21 01:57:46;;;;;;;3.83;3.53;;;17.50;99.90;;;;;;2092131;28;20086;-70
2023/07/21 01:58:48;;;;;;;4.47;3.92;;;17.50;99.90;;;;;;2092098;28;20039;-70
2023/07/21 01:59:49;;;;;;;3.85;3.40;;;17.50;99.90;;;;;;2092153;28;20528;-70
2023/07/21 02:00:50;;;;;;;3.70;3.28;;;17.50;99.90;;;;;;2092720;28;20032;-70
2023/07/21 02:01:54;;;;;;;4.05;3.15;;;17.50;99.90;;;;;;2093073;28;20033;-70
2023/07/21 02:02:56;;;;;;;3.45;3.15;;;17.50;99.90;;;;;;2092494;28;20024;-70
2023/07/21 02:03:57;;;;;;;3.08;2.78;;;17.50;99.90;;;;;;2092079;28;20032;-70
2023/07/21 02:04:57;;;;;;;3.92;3.30;;;17.50;99.90;;;;;;2092705;28;20025;-70
2023/07/21 02:05:58;;;;;;;2.90;2.70;;;17.50;99.90;;;;;;2091375;28;20044;-70
2023/07/21 02:06:58;;;;;;;3.90;3.60;;;17.50;99.90;;;;;;2092262;28;20393;-70
2023/07/21 02:07:59;;;;;;;3.60;3.30;;;17.40;99.90;;;;;;2090949;28;20106;-70
2023/07/21 02:08:59;;;;;;;5.97;3.53;;;17.50;99.90;;;;;;2091255;28;20047;-70
2023/07/21 02:10:00;;;;;;;3.17;2.88;;;17.40;99.90;;;;;;2091454;28;20052;-70
2023/07/21 02:11:01;;;;;;;3.10;2.90;;;17.40;99.90;;;;;;2092304;28;20064;-70
2023/07/21 02:12:01;;;;;;;3.05;2.85;;;17.40;99.90;;;;;;2091244;28;20036;-70
2023/07/21 02:13:04;;;;;;;2.80;2.60;;;17.40;99.90;;;;;;2091219;28;20039;-70
2023/07/21 02:14:04;;;;;;;2.65;2.55;;;17.40;99.90;;;;;;2092019;28;20032;-70
2023/07/21 02:15:08;;;;;;;4.70;3.25;;;17.40;99.90;;;;;;2090518;28;20127;-70
2023/07/21 02:16:09;;;;;;;4.15;3.78;;;17.40;99.90;;;;;;2090554;28;20080;-70
2023/07/21 02:17:10;;;;;;;4.18;3.40;;;17.40;99.90;;;;;;2090903;28;20029;-70
2023/07/21 02:18:10;;;;;;;4.38;3.97;;;17.40;99.90;;;;;;2092872;28;20119;-70
2023/07/21 02:19:12;;;;;;;4.50;3.58;;;17.40;99.90;;;;;;2092778;28;20025;-70
2023/07/21 02:20:14;;;;;;;3.60;3.30;;;17.40;99.90;;;;;;2091144;28;20021;-70
2023/07/21 02:21:14;;;;;;;2.80;2.60;;;17.40;99.90;;;;;;2090306;28;20017;-70
2023/07/21 02:22:15;;;;;;;3.78;3.42;;;17.40;99.90;;;;;;2090981;28;20036;-70
2023/07/21 02:23:15;;;;;;;3.40;3.20;;;17.40;99.90;;;;;;2091109;28;20065;-70
2023/07/21 02:24:16;;;;;;;3.80;3.50;;;17.40;99.90;;;;;;2090556;28;20031;-70
2023/07/21 02:25:17;;;;;;;4.00;3.67;;;17.30;99.90;;;;;;2091534;28;20020;-70
2023/07/21 02:26:17;;;;;;;3.28;3.08;;;17.40;99.90;;;;;;2090514;28;20021;-70
2023/07/21 02:27:18;;;;;;;3.90;3.70;;;17.40;99.90;;;;;;2090596;28;20065;-70
2023/07/21 02:28:18;;;;;;;5.22;3.33;;;17.40;99.90;;;;;;2092796;28;20029;-70
2023/07/21 02:29:19;;;;;;;4.10;3.50;;;17.40;99.90;;;;;;2092688;28;20028;-70
2023/07/21 02:30:20;;;;;;;3.22;3.00;;;17.30;99.90;;;;;;2089384;28;20096;-70
2023/07/21 02:31:21;;;;;;;4.05;3.75;;;17.40;99.90;;;;;;2092021;28;20012;-70
2023/07/21 02:32:22;;;;;;;4.53;4.18;;;17.40;99.90;;;;;;2092489;28;20376;-70
2023/07/21 02:33:22;;;;;;;5.13;4.38;;;17.40;99.90;;;;;;2091234;28;20020;-70
2023/07/21 02:34:23;;;;;;;4.45;4.10;;;17.40;99.90;;;;;;2091651;28;20024;-70
2023/07/21 02:35:23;;;;;;;4.70;3.90;;;17.30;99.90;;;;;;2092504;28;20017;-70
2023/07/21 02:36:24;;;;;;;4.45;4.00;;;17.30;99.90;;;;;;2093360;28;20028;-70
2023/07/21 02:37:25;;;;;;;5.03;4.43;;;17.30;99.90;;;;;;2092734;28;20503;-70
2023/07/21 02:38:26;;;;;;;4.25;3.95;;;17.30;99.90;;;;;;2091212;28;20029;-70
2023/07/21 02:39:27;;;;;;;5.18;4.00;;;17.30;99.90;;;;;;2092644;28;20032;-70
2023/07/21 02:40:29;;;;;;;4.38;3.30;;;17.30;99.90;;;;;;2090888;28;20402;-70
2023/07/21 02:41:29;;;;;;;3.35;2.70;;;17.30;99.90;;;;;;2092356;28;20373;-70
2023/07/21 02:42:30;;;;;;;4.07;3.78;;;17.30;99.90;;;;;;2092311;28;20056;-70
2023/07/21 02:43:32;;;;;;;5.38;3.78;;;17.30;99.90;;;;;;2091891;28;20021;-70
2023/07/21 02:44:33;;;;;;;4.45;4.05;;;17.30;99.90;;;;;;2091400;28;20290;-70
2023/07/21 02:45:33;;;;;;;7.07;3.33;;;17.30;99.90;;;;;;2090377;28;20028;-70
2023/07/21 02:46:36;;;;;;;5.78;3.95;;;17.30;99.90;;;;;;2091283;28;20547;-70
2023/07/21 02:47:37;;;;;;;5.97;3.33;;;17.30;99.90;;;;;;2092298;28;20108;-70
2023/07/21 02:48:38;;;;;;;4.30;3.90;;;17.30;99.90;;;;;;2093836;28;20368;-70
2023/07/21 02:49:39;;;;;;;3.78;3.53;;;17.30;99.90;;;;;;2088650;28;20099;-70
2023/07/21 02:50:40;;;;;;;10.05;4.45;;;17.30;99.90;;;;;;2089820;28;20893;-70
2023/07/21 02:51:40;;;;;;;4.22;3.83;;;17.30;99.90;;;;;;2091300;28;20016;-70
2023/07/21 02:52:42;;;;;;;4.20;3.90;;;17.30;99.90;;;;;;2091663;28;20029;-70
2023/07/21 02:53:42;;;;;;;4.28;3.78;;;17.30;99.90;;;;;;2090145;28;20057;-70
2023/07/21 02:54:43;;;;;;;5.07;3.83;;;17.30;99.90;;;;;;2094407;28;20087;-70
2023/07/21 02:55:44;;;;;;;3.80;3.42;;;17.30;99.90;;;;;;2092932;28;20527;-70
2023/07/21 02:56:45;;;;;;;3.30;3.03;;;17.30;99.90;;;;;;2091862;28;20874;-70
2023/07/21 02:57:45;;;;;;;4.53;3.15;;;17.20;99.90;;;;;;2092533;28;20029;-70
2023/07/21 02:58:46;;;;;;;3.17;2.97;;;17.20;99.90;;;;;;2089774;28;20051;-70
2023/07/21 02:59:46;;;;;;;4.00;3.70;;;17.30;99.90;;;;;;2091035;28;20489;-70
2023/07/21 03:00:47;;;;;;;4.30;3.72;;;17.20;99.90;;;;;;2090857;28;20024;-70
2023/07/21 03:01:54;;;;;;;3.53;2.80;;;17.20;99.90;;;;;;2090426;28;20029;-72
2023/07/21 03:02:55;;;;;;;3.22;2.97;;;17.30;99.90;;;;;;2093063;28;20035;-70
2023/07/21 03:03:56;;;;;;;3.65;3.35;;;17.20;99.90;;;;;;2091361;28;20551;-70
2023/07/21 03:04:57;;;;;;;5.63;4.50;;;17.20;99.90;;;;;;2092927;28;20111;-70
2023/07/21 03:05:59;;;;;;;4.65;3.38;;;17.20;99.90;;;;;;2091715;28;20016;-70
2023/07/21 03:06:59;;;;;;;3.15;2.92;;;17.20;99.90;;;;;;2091995;28;20028;-70
2023/07/21 03:08:00;;;;;;;4.28;3.55;;;17.10;99.90;;;;;;2092339;28;20535;-70
2023/07/21 03:09:01;;;;;;;4.03;3.72;;;17.20;99.90;;;;;;2090731;28;20025;-70
2023/07/21 03:10:01;;;;;;;3.58;3.30;;;17.10;99.90;;;;;;2090693;28;20033;-70
2023/07/21 03:11:02;;;;;;;3.78;3.35;;;17.10;99.90;;;;;;2091528;28;20048;-70
2023/07/21 03:12:02;;;;;;;2.78;2.60;;;17.10;99.90;;;;;;2090215;28;20071;-70
2023/07/21 03:13:03;;;;;;;3.88;2.92;;;17.10;99.90;;;;;;2090199;28;20029;-70
2023/07/21 03:14:04;;;;;;;2.97;2.78;;;17.10;99.90;;;;;;2092052;28;20093;-70
2023/07/21 03:15:06;;;;;;;4.05;2.90;;;17.10;99.90;;;;;;2090311;28;20112;-70
2023/07/21 03:16:07;;;;;;;3.80;3.60;;;17.10;99.90;;;;;;2092551;28;20025;-70
2023/07/21 03:17:07;;;;;;;4.70;3.75;;;17.10;99.90;;;;;;2091587;28;20028;-70
2023/07/21 03:18:08;;;;;;;3.90;3.22;;;17.00;99.90;;;;;;2090279;28;20492;-70
2023/07/21 03:19:10;;;;;;;3.78;3.45;;;17.10;99.90;;;;;;2092252;28;20025;-70
2023/07/21 03:20:12;;;;;;;3.95;3.60;;;17.00;99.90;;;;;;2090016;28;20056;-70
2023/07/21 03:21:13;;;;;;;3.97;3.60;;;17.00;99.90;;;;;;2091590;28;20032;-70
2023/07/21 03:22:16;;;;;;;4.15;3.55;;;17.00;99.90;;;;;;2091610;28;20060;-70
2023/07/21 03:23:16;;;;;;;4.32;3.38;;;17.00;99.90;;;;;;2091432;28;20021;-70
2023/07/21 03:24:17;;;;;;;4.13;3.80;;;17.00;99.90;;;;;;2090985;28;20021;-70
2023/07/21 03:25:18;;;;;;;3.53;3.17;;;17.00;99.90;;;;;;2091568;28;20032;-70
2023/07/21 03:26:18;;;;;;;3.67;3.38;;;17.00;99.90;;;;;;2092415;28;20029;-70
2023/07/21 03:27:19;;;;;;;3.30;3.10;;;17.00;99.90;;;;;;2092999;28;20045;-70
2023/07/21 03:28:21;;;;;;;2.97;2.78;;;16.90;99.90;;;;;;2092609;28;20135;-70
2023/07/21 03:29:22;;;;;;;3.65;3.35;;;16.90;99.90;;;;;;2091746;28;20104;-70
2023/07/21 03:30:22;;;;;;;6.13;3.97;;;16.90;99.90;;;;;;2090600;28;20025;-70
2023/07/21 03:31:23;;;;;;;3.80;3.53;;;16.90;99.90;;;;;;2092108;28;20033;-70
2023/07/21 03:32:24;;;;;;;3.70;3.40;;;16.90;99.90;;;;;;2092592;28;20017;-70
2023/07/21 03:33:24;;;;;;;4.00;3.60;;;16.90;99.90;;;;;;2092965;28;20021;-70
2023/07/21 03:34:25;;;;;;;4.50;3.58;;;16.90;99.90;;;;;;2094507;28;20086;-70
2023/07/21 03:35:25;;;;;;;4.20;3.78;;;16.90;99.90;;;;;;2092849;28;20100;-70
2023/07/21 03:36:26;;;;;;;3.83;3.22;;;16.90;99.90;;;;;;2092503;28;20029;-72
2023/07/21 03:37:26;;;;;;;3.85;3.55;;;16.90;99.90;;;;;;2091760;28;20025;-71
2023/07/21 03:38:29;;;;;;;4.63;4.03;;;16.90;99.90;;;;;;2094727;28;20021;-71
2023/07/21 03:39:29;;;;;;;3.58;3.28;;;16.80;99.90;;;;;;2091754;28;20021;-70
2023/07/21 03:40:30;;;;;;;3.08;2.85;;;16.80;99.90;;;;;;2092982;28;20020;-70
2023/07/21 03:41:30;;;;;;;3.92;3.42;;;16.80;99.90;;;;;;2092965;28;20764;-70
2023/07/21 03:42:31;;;;;;;4.25;3.95;;;16.80;99.90;;;;;;2091807;28;20031;-70
2023/07/21 03:43:32;;;;;;;4.50;4.10;;;16.80;99.90;;;;;;2093266;28;20396;-70
2023/07/21 03:44:32;;;;;;;4.43;4.13;;;16.80;99.90;;;;;;2091563;28;20429;-70
2023/07/21 03:45:33;;;;;;;4.18;3.88;;;16.80;99.90;;;;;;2092828;28;20027;-70
2023/07/21 03:46:33;;;;;;;4.07;3.67;;;16.80;99.90;;;;;;2093383;28;20036;-70
2023/07/21 03:47:35;;;;;;;5.30;3.50;;;16.80;99.90;;;;;;2094536;28;20108;-71
2023/07/21 03:48:35;;;;;;;7.38;3.50;;;16.80;99.90;;;;;;2093546;28;20032;-71
2023/07/21 03:49:36;;;;;;;3.92;3.63;;;16.80;99.90;;;;;;2093378;28;20483;-71
2023/07/21 03:50:36;;;;;;;3.75;3.45;;;16.70;99.90;;;;;;2091771;28;20795;-70
2023/07/21 03:51:39;;;;;;;4.10;3.67;;;16.70;99.90;;;;;;2093355;28;20016;-71
2023/07/21 03:52:41;;;;;;;3.85;3.45;;;16.70;99.90;;;;;;2092256;28;20362;-71
2023/07/21 03:53:41;;;;;;;4.88;3.92;;;16.70;99.90;;;;;;2093369;28;20048;-71
2023/07/21 03:54:42;;;;;;;4.90;3.65;;;16.70;99.90;;;;;;2095248;28;20028;-71
2023/07/21 03:55:43;;;;;;;6.57;4.22;;;16.70;99.90;;;;;;2092244;28;20323;-71
2023/07/21 03:56:44;;;;;;;3.92;3.63;;;16.70;99.90;;;;;;2092829;28;20120;-71
2023/07/21 03:57:44;;;;;;;3.33;3.03;;;16.70;99.90;;;;;;2092871;28;20032;-71
2023/07/21 03:58:45;;;;;;;6.38;4.13;;;16.70;99.90;;;;;;2093316;28;20025;-71
2023/07/21 03:59:47;;;;;;;4.03;3.55;;;16.70;99.90;;;;;;2094413;28;20037;-71
2023/07/21 04:00:48;;;;;;;4.25;3.95;;;16.70;99.90;;;;;;2092631;28;20496;-71
2023/07/21 04:01:49;;;;;;;5.53;4.57;;;16.70;99.90;;;;;;2093549;28;20068;-70
2023/07/21 04:02:49;;;;;;;4.30;4.00;;;16.70;99.90;;;;;;2092056;28;20043;-71
2023/07/21 04:03:51;;;;;;;3.97;3.67;;;16.70;99.90;;;;;;2093020;28;20021;-71
2023/07/21 04:04:53;;;;;;;4.68;4.15;;;16.70;99.90;;;;;;2093765;28;20040;-71
2023/07/21 04:05:54;;;;;;;4.32;3.40;;;16.70;99.90;;;;;;2094832;28;20448;-71
2023/07/21 04:06:54;;;;;;;3.80;3.17;;;16.70;99.90;;;;;;2094382;28;20461;-71
2023/07/21 04:07:55;;;;;;;4.35;3.53;;;16.70;99.90;;;;;;2094755;28;20027;-71
2023/07/21 04:08:55;;;;;;;5.32;4.25;;;16.70;99.90;;;;;;2094265;28;20503;-71
2023/07/21 04:09:58;;;;;;;5.28;4.78;;;16.70;99.90;;;;;;2092391;28;20028;-71
2023/07/21 04:10:59;;;;;;;4.30;3.70;;;16.70;99.90;;;;;;2093243;28;20025;-71
2023/07/21 04:11:59;;;;;;;4.15;3.50;;;16.70;99.90;;;;;;2092509;28;20025;-71
2023/07/21 04:13:00;;;;;;;4.10;3.65;;;16.70;99.90;;;;;;2093016;28;20028;-71
2023/07/21 04:14:00;;;;;;;4.35;4.05;;;16.70;99.90;;;;;;2094524;28;20017;-71
2023/07/21 04:15:01;;;;;;;4.38;3.22;;;16.70;99.90;;;;;;2091825;28;20485;-71
2023/07/21 04:16:02;;;;;;;3.72;3.42;;;16.70;99.90;;;;;;2093596;28;20028;-71
2023/07/21 04:17:02;;;;;;;3.00;2.80;;;16.70;99.90;;;;;;2092574;28;20021;-71
2023/07/21 04:18:04;;;;;;;6.85;3.20;;;16.70;99.90;;;;;;2095609;28;20119;-71
2023/07/21 04:19:05;;;;;;;3.97;3.45;;;16.70;99.90;;;;;;2095588;28;20452;-71
2023/07/21 04:20:09;;;;;;;5.50;4.65;;;16.70;99.90;;;;;;2092174;28;20850;-71
2023/07/21 04:21:10;;;;;;;4.32;4.05;;;16.70;99.90;;;;;;2091650;28;20114;-71
2023/07/21 04:22:10;;;;;;;4.90;4.45;;;16.70;99.90;;;;;;2094816;28;20025;-71
2023/07/21 04:23:11;;;;;;;7.38;5.10;;;16.70;99.90;;;;;;2093479;28;20013;-71
2023/07/21 04:24:11;;;;;;;6.05;5.30;;;16.70;99.90;;;;;;2091704;28;20029;-71
2023/07/21 04:25:12;;;;;;;5.00;4.65;;;16.70;99.90;;;;;;2092114;28;20017;-71
2023/07/21 04:26:15;;;;;;;6.88;5.13;;;16.70;99.90;;;;;;2094538;28;20028;-71
2023/07/21 04:27:16;;;;;;;7.07;5.22;;;16.70;99.90;;;;;;2092667;28;20024;-70
2023/07/21 04:28:16;;;;;;;7.80;5.78;;;16.70;99.90;;;;;;2092343;28;20033;-70
2023/07/21 04:29:17;;;;;;;5.90;5.30;;;16.70;99.90;;;;;;2093660;28;20772;-70
2023/07/21 04:30:18;;;;;;;5.85;5.38;;;16.70;99.90;;;;;;2094365;28;20048;-70
2023/07/21 04:31:21;;;;;;;5.05;4.65;;;16.70;99.90;;;;;;2093835;28;20442;-70
2023/07/21 04:32:22;;;;;;;3.97;3.67;;;16.70;99.90;;;;;;2095310;28;20094;-70
2023/07/21 04:33:22;;;;;;;4.95;4.55;;;16.80;99.90;;;;;;2093509;28;20028;-70
2023/07/21 04:34:23;;;;;;;5.03;4.63;;;16.80;99.90;;;;;;2090552;28;20115;-70
2023/07/21 04:35:23;;;;;;;5.65;5.15;;;16.80;99.90;;;;;;2094222;28;20365;-70
2023/07/21 04:36:24;;;;;;;8.00;5.57;;;16.80;99.90;;;;;;2090957;28;20025;-70
2023/07/21 04:37:25;;;;;;;5.88;5.32;;;16.80;99.90;;;;;;2092907;28;20033;-70
2023/07/21 04:38:26;;;;;;;6.78;6.03;;;16.90;99.90;;;;;;2091675;28;20039;-70
2023/07/21 04:39:26;;;;;;;7.13;5.85;;;16.90;99.90;;;;;;2091086;28;20082;-70
2023/07/21 04:40:27;;;;;;;6.47;5.93;;;16.90;99.90;;;;;;2091595;28;20491;-70
2023/07/21 04:41:27;;;;;;;6.43;5.88;;;17.00;99.90;;;;;;2092882;28;20074;-70
2023/07/21 04:42:28;;;;;;;7.57;6.53;;;17.00;99.90;;;;;;2092990;28;20027;-70
2023/07/21 04:43:28;;;;;;;6.50;6.00;;;17.00;99.90;;;;;;2091233;28;20620;-70
2023/07/21 04:44:29;;;;;;;7.55;6.85;;;17.10;99.90;;;;;;2091206;28;20016;-70
2023/07/21 04:45:29;;;;;;;7.97;7.28;;;17.10;99.90;;;;;;2093201;28;20024;-70
2023/07/21 04:46:30;;;;;;;8.00;6.93;;;17.10;99.90;;;;;;2094279;28;20119;-70
2023/07/21 04:47:30;;;;;;;7.22;6.53;;;17.20;99.90;;;;;;2093876;28;20384;-70
2023/07/21 04:48:31;;;;;;;7.93;7.22;;;17.20;99.90;;;;;;2096246;28;20052;-70
2023/07/21 04:49:32;;;;;;;7.78;6.70;;;17.20;99.90;;;;;;2090535;28;20024;-70
2023/07/21 04:50:32;;;;;;;7.75;6.95;;;17.20;99.90;;;;;;2090807;28;20111;-70
2023/07/21 04:51:33;;;;;;;8.30;7.50;;;17.20;99.90;;;;;;2094186;28;20036;-70
2023/07/21 04:52:36;;;;;;;8.07;7.32;;;17.30;99.90;;;;;;2092231;28;20467;-70
2023/07/21 04:53:37;;;;;;;8.20;7.53;;;17.30;99.90;;;;;;2093448;28;20023;-70
2023/07/21 04:54:38;;;;;;;10.07;8.20;;;17.30;99.90;;;;;;2093076;28;20032;-70
2023/07/21 04:55:39;;;;;;;9.15;8.15;;;17.30;99.90;;;;;;2091486;28;20017;-70
2023/07/21 04:56:39;;;;;;;8.23;7.47;;;17.40;99.90;;;;;;2093737;28;20051;-70
2023/07/21 04:57:40;;;;;;;9.40;8.45;;;17.40;99.90;;;;;;2091948;28;20791;-70
2023/07/21 04:58:41;;;;;;;8.93;8.13;;;17.40;99.90;;;;;;2094384;28;20033;-70
2023/07/21 04:59:43;;;;;;;8.88;8.18;;;17.40;99.90;;;;;;2091642;28;20040;-70
2023/07/21 05:00:43;;;;;;;8.70;7.90;;;17.50;99.90;;;;;;2091481;28;20047;-70
2023/07/21 05:01:44;;;;;;;9.00;8.10;;;17.50;99.90;;;;;;2093717;28;20032;-70
2023/07/21 05:02:45;;;;;;;9.82;8.63;;;17.60;99.90;;;;;;2093129;28;20109;-70
2023/07/21 05:03:46;;;;;;;9.70;8.80;;;17.60;99.90;;;;;;2092813;28;20549;-70
2023/07/21 05:04:47;;;;;;;11.63;8.48;;;17.60;99.90;;;;;;2093672;28;20039;-70
2023/07/21 05:05:48;;;;;;;9.80;8.90;;;17.70;99.90;;;;;;2092570;28;20444;-70
2023/07/21 05:06:48;;;;;;;10.07;9.07;;;17.70;99.90;;;;;;2091683;28;20099;-70
2023/07/21 05:07:49;;;;;;;9.85;8.32;;;17.70;99.90;;;;;;2094330;28;20025;-70
2023/07/21 05:08:50;;;;;;;9.57;8.77;;;17.80;99.90;;;;;;2092300;28;20127;-70
2023/07/21 05:09:51;;;;;;;9.68;8.80;;;17.80;99.90;;;;;;2091977;28;20104;-70
2023/07/21 05:10:53;;;;;;;9.82;8.93;;;17.90;99.90;;;;;;2091875;28;20028;-70
2023/07/21 05:11:54;;;;;;;11.02;9.95;;;17.90;99.90;;;;;;2092035;28;20017;-70
2023/07/21 05:12:55;;;;;;;10.20;9.30;;;17.90;99.90;;;;;;2091844;28;20021;-70
2023/07/21 05:13:56;;;;;;;10.80;9.48;;;17.90;99.90;;;;;;2092733;28;20021;-70
2023/07/21 05:14:57;;;;;;;9.75;8.95;;;18.00;99.90;;;;;;2092678;28;20072;-70
2023/07/21 05:16:00;;;;;;;9.57;8.68;;;18.00;99.90;;;;;;2093702;28;20013;-70
2023/07/21 05:17:01;;;;;;;8.10;7.45;;;18.00;99.90;;;;;;2091847;28;20123;-70
2023/07/21 05:18:02;;;;;;;10.00;9.05;;;18.00;99.90;;;;;;2092749;28;20024;-70
2023/07/21 05:19:03;;;;;;;12.05;10.82;;;18.10;99.90;;;;;;2092820;28;20093;-70